• Join FlightAware (Why Join?)
  • Login
  • US Flag 
04:56AM EDT


 

Airport Tracker/Info


-or-


 

Live Flight TrackerFlight Track Log ✈ GTI192 ✈ 26-Apr-2013 ✈ KMSP - KTOL

Flight Track Log - Related Links

Times and Time Zones

All times are in EDT time to prevent confusion due to time zone crossing. See the GTI192 flight status page for this flight to view local times or setup timezone preferences in your user account.

Time Position Orientation Groundspeed Altitude Reporting Facility
EDT Latitude Longitude Course Direction KTS MPH feet Rate Location/Type
10:22PM 44.8333 -93.2000 115° Southeast 196 226 3,100  Level Minneapolis TRACON
10:23PM 44.8117 -93.1525 123° Southeast 314 361 5,800 3,420 Climbing Minneapolis Center
10:24PM 44.7739 -93.0644 121° Southeast 277 319 9,300 3,000 Climbing Minneapolis Center
10:25PM 44.7439 -92.9489 110° East 314 361 12,000 2,460 Climbing Minneapolis Center
10:26PM 44.7075 -92.8069 110° East 387 445 14,900 2,760 Climbing Minneapolis Center
10:28PM 44.6483 -92.4949 115° Southeast  Level FlightAware Approximate
10:28PM 44.6625 -92.6322 110° East 395 455 18,300  Level Minneapolis Center
10:29PM 44.6178 -92.4772 112° Southeast 423 487 21,300 2,760 Climbing Minneapolis Center
10:30PM 44.5697 -92.3175 113° Southeast 442 509 24,000 2,640 Climbing Minneapolis Center
10:31PM 44.5108 -92.1194 113° Southeast 459 528 26,700 2,160 Climbing Minneapolis Center
10:32PM 44.4586 -91.9486 113° Southeast 474 545 28,500 1,800 Climbing Minneapolis Center
10:33PM 44.4067 -91.7744 113° Southeast 485 558 30,400 2,040 Climbing Minneapolis Center
10:34PM 44.3528 -91.6022 114° Southeast 487 560 32,700 1,260 Climbing Minneapolis Center
10:35PM 44.3114 -91.4628 112° Southeast 486 559 33,000 120 Climbing Minneapolis Center
10:36PM 44.2417 -91.2381 113° Southeast 485 558 33,000  Level Minneapolis Center
10:37PM 44.1869 -91.0656 114° Southeast 489 563 33,000  Level Minneapolis Center
10:38PM 44.1331 -90.8894 113° Southeast 494 568 33,000  Level Minneapolis Center
10:39PM 44.0783 -90.7147 114° Southeast 496 571 33,000  Level Minneapolis Center
10:40PM 44.0156 -90.5208 114° Southeast 495 570 33,000  Level Minneapolis Center
10:41PM 43.9597 -90.3461 114° Southeast 495 570 33,000  Level Minneapolis Center
10:42PM 43.9042 -90.1742 114° Southeast 491 565 33,000  Level Minneapolis Center
10:43PM 43.8486 -90.0000 114° Southeast 492 566 33,000  Level Minneapolis Center
10:44PM 43.7911 -89.8258 115° Southeast 496 571 33,000  Level Minneapolis Center
10:45PM 43.7356 -89.6531 114° Southeast 493 567 33,000  Level Minneapolis Center
10:46PM 43.6789 -89.4797 114° Southeast 493 567 33,000  Level Minneapolis Center
10:47PM 43.6203 -89.3067 115° Southeast 497 572 33,000  Level Minneapolis Center
10:47PM 43.6008 -89.2492 115° Southeast 496 571 33,000  Level Chicago Center
10:48PM 43.5419 -89.0761 115° Southeast 498 573 33,000  Level Chicago Center
10:49PM 43.4836 -88.9031 115° Southeast 499 574 33,000  Level Chicago Center
10:50PM 43.4250 -88.7308 115° Southeast 500 575 33,000  Level Chicago Center
10:51PM 43.3661 -88.5619 116° Southeast 500 575 33,000  Level Chicago Center
10:52PM 43.2981 -88.3628 115° Southeast 508 585 33,000  Level Chicago Center
10:53PM 43.2389 -88.1903 115° Southeast 503 579 33,000 -420 Level Chicago Center
10:54PM 43.1786 -88.0183 116° Southeast 501 577 32,200 -960 Descending Chicago Center
10:55PM 43.1183 -87.8478 116° Southeast 499 574 31,100 -600 Descending Chicago Center
10:56PM 43.0578 -87.6761 116° Southeast 500 575 31,000 -60 Descending Chicago Center
10:57PM 42.9972 -87.5050 116° Southeast 501 577 31,000  Level Chicago Center
10:58PM 42.9328 -87.3275 116° Southeast 504 580 31,000  Level Chicago Center
10:59PM 42.8714 -87.1558 116° Southeast 505 581 31,000  Level Chicago Center
11:00PM 42.8083 -86.9842 117° Southeast 509 586 31,000 -240 Level Chicago Center
11:01PM 42.7475 -86.8139 116° Southeast 506 582 30,600 -660 Descending Chicago Center
11:02PM 42.6858 -86.6447 116° Southeast 504 580 29,700 -1,320 Descending Chicago Center
11:03PM 42.6239 -86.4808 117° Southeast 496 571 28,000 -2,460 Descending Chicago Center
11:04PM 42.5528 -86.2894 117° Southeast 481 554 24,800 -2,820 Descending Chicago Center
11:05PM 42.4950 -86.1364 117° Southeast 465 535 22,300 -2,340 Descending Chicago Center
11:07PM 42.4400 -85.9886 117° Southeast 446 513 20,100 -1,680 Descending Chicago Center
11:08PM 42.3861 -85.8469 117° Southeast 430 495 19,000 -600 Descending Chicago Center
11:09PM 42.3333 -85.7092 117° Southeast 418 481 19,000  Level Chicago Center
11:10PM 42.2817 -85.5694 117° Southeast 418 481 19,000  Level Chicago Center
11:11PM 42.2278 -85.4306 118° Southeast 420 483 19,000  Level Chicago Center
11:11PM 42.2047 -85.3575 113° Southeast 418 481 19,000 -660 Level Cleveland Center
11:12PM 42.1497 -85.2189 118° Southeast 423 487 18,100 -1,260 Descending Cleveland Center
11:13PM 42.0989 -85.0864 117° Southeast 412 474 16,500 -1,800 Descending Cleveland Center
11:14PM 42.0475 -84.9597 119° Southeast 400 460 14,600 -2,100 Descending Cleveland Center
11:15PM 41.9939 -84.8275 119° Southeast 381 438 12,300 -1,800 Descending Cleveland Center
11:16PM 41.9503 -84.7072 116° Southeast 371 427 11,000 -660 Descending Cleveland Center
11:17PM 41.9081 -84.6069 119° Southeast 348 400 11,000 -480 Level Cleveland Center
11:18PM 41.8697 -84.5125 119° Southeast 317 365 10,100 -1,200 Descending Cleveland Center
11:19PM 41.8333 -84.4153 117° Southeast 295 339 8,700 -1,260 Descending Cleveland Center
11:20PM 41.7967 -84.3242 118° Southeast 283 326 7,600 -1,260 Descending Cleveland Center
11:21PM 41.7578 -84.2356 120° Southeast 278 320 6,200 -1,140 Descending Cleveland Center
11:22PM 41.7250 -84.1500 117° Southeast 273 314 5,400 -840 Descending Cleveland Center
11:23PM 41.6961 -84.0761 118° Southeast 253 291 4,600 -900 Descending Cleveland Center
11:24PM 41.6692 -84.0025 116° Southeast 233 268 3,600 -840 Descending Cleveland Center
11:25PM 41.6483 -83.9347 112° Southeast 213 245 3,000 -600 Descending Cleveland Center
11:27PM 41.5833 -83.8000 108° East  Level FlightAware Approximate
11:34PM 41.5868 -83.8078 108° East  Level Estimated
11:35PM 41.5833 -83.8000 108° East  Level FlightAware Approximate
11:36PM 41.5868 -83.8078 108° East  Level Estimated
11:37PM 41.5833 -83.8000 108° East  Level FlightAware Approximate